Time,TemperatureF,DewpointF,PressureIn,WindDirection,WindDirectionDegrees,WindSpeedMPH,WindSpeedGustMPH,Humidity,HourlyPrecipIn,Conditions,Clouds,dailyrainin,SoftwareType,DateUTC
2013-07-02 00:00:00,0.0,0.0,30.01,North,0,0.0,0.0,0,0.00,,---,0.14,VWS V14.01,2013-07-02 04:00:00,
2013-07-02 00:01:00,0.0,0.0,30.01,North,0,0.0,0.0,0,0.00,,---,0.00,VWS V14.01,2013-07-02 04:01:00,
2013-07-02 00:04:00,0.0,0.0,30.01,North,0,0.0,0.0,0,0.00,,---,0.00,VWS V14.01,2013-07-02 04:04:00,
2013-07-02 00:09:00,0.0,0.0,30.01,North,0,0.0,0.0,0,0.00,,---,0.00,VWS V14.01,2013-07-02 04:09:00,
2013-07-02 00:14:00,0.0,0.0,30.01,North,0,0.0,0.0,0,0.00,,---,0.00,VWS V14.01,2013-07-02 04:14:00,
2013-07-02 00:19:00,0.0,0.0,30.01,North,0,0.0,0.0,0,0.00,,---,0.00,VWS V14.01,2013-07-02 04:19:00,
2013-07-02 00:26:00,0.0,0.0,30.01,North,0,0.0,0.0,0,0.00,,---,0.00,VWS V14.01,2013-07-02 04:26:00,
2013-07-02 00:30:00,0.0,0.0,30.02,North,0,0.0,0.0,0,0.00,,---,0.00,VWS V14.01,2013-07-02 04:30:00,
2013-07-02 00:31:00,0.0,0.0,30.02,North,0,0.0,0.0,0,0.00,,---,0.00,VWS V14.01,2013-07-02 04:31:00,
2013-07-02 00:36:00,0.0,0.0,30.01,North,0,0.0,0.0,0,0.00,,---,0.00,VWS V14.01,2013-07-02 04:36:00,
2013-07-02 00:41:00,0.0,0.0,30.02,North,0,0.0,0.0,0,0.00,,---,0.00,VWS V14.01,2013-07-02 04:41:00,
2013-07-02 00:45:00,0.0,0.0,30.02,North,0,0.0,0.0,0,0.00,,---,0.00,VWS V14.01,2013-07-02 04:45:00,
2013-07-02 00:50:00,0.0,0.0,30.02,North,0,0.0,0.0,0,0.00,,---,0.00,VWS V14.01,2013-07-02 04:50:00,
2013-07-02 00:55:00,0.0,0.0,30.02,North,0,0.0,0.0,0,0.00,,---,0.00,VWS V14.01,2013-07-02 04:55:00,
2013-07-02 01:00:00,0.0,0.0,30.01,North,0,0.0,0.0,0,0.00,,---,0.00,VWS V14.01,2013-07-02 05:00:00,
2013-07-02 01:05:00,0.0,0.0,30.02,North,0,0.0,0.0,0,0.00,,---,0.00,VWS V14.01,2013-07-02 05:05:00,
2013-07-02 01:10:00,0.0,0.0,30.02,North,0,0.0,0.0,0,0.00,,---,0.00,VWS V14.01,2013-07-02 05:10:00,
2013-07-02 01:15:00,0.0,0.0,30.02,North,0,0.0,0.0,0,0.00,,---,0.00,VWS V14.01,2013-07-02 05:15:00,
2013-07-02 01:20:00,0.0,0.0,30.01,North,0,0.0,0.0,0,0.00,,---,0.00,VWS V14.01,2013-07-02 05:20:00,
2013-07-02 01:25:00,0.0,0.0,30.01,North,0,0.0,0.0,0,0.00,,---,0.00,VWS V14.01,2013-07-02 05:25:00,
2013-07-02 01:30:00,0.0,0.0,30.01,North,0,0.0,0.0,0,0.00,,---,0.00,VWS V14.01,2013-07-02 05:30:00,
2013-07-02 01:35:00,0.0,0.0,30.01,North,0,0.0,0.0,0,0.00,,---,0.00,VWS V14.01,2013-07-02 05:35:00,
2013-07-02 01:40:00,0.0,0.0,30.01,North,0,0.0,0.0,0,0.00,,---,0.00,VWS V14.01,2013-07-02 05:40:00,
2013-07-02 01:45:00,78.1,70.3,30.01,SSW,210,0.0,0.0,77,0.00,,---,0.00,VWS V14.01,2013-07-02 05:45:00,
2013-07-02 01:50:00,78.3,70.5,30.01,SW,223,0.0,0.0,77,0.00,,---,0.00,VWS V14.01,2013-07-02 05:50:00,
2013-07-02 01:55:00,78.3,70.5,30.01,SSW,205,0.0,0.0,77,0.00,,---,0.00,VWS V14.01,2013-07-02 05:55:00,
2013-07-02 02:00:00,78.4,70.2,30.01,SSW,205,0.0,0.0,76,0.00,,---,0.00,VWS V14.01,2013-07-02 06:00:00,
2013-07-02 02:05:00,78.4,70.2,30.01,SW,232,0.0,0.0,76,0.00,,---,0.00,VWS V14.01,2013-07-02 06:05:00,
2013-07-02 02:10:00,78.4,70.6,30.01,SW,220,0.0,0.0,77,0.00,,---,0.00,VWS V14.01,2013-07-02 06:10:00,
2013-07-02 02:15:00,78.5,70.7,30.01,SW,223,0.0,0.0,77,0.00,,---,0.00,VWS V14.01,2013-07-02 06:15:00,
2013-07-02 02:20:00,78.5,70.7,30.01,SSW,212,0.0,0.0,77,0.00,,---,0.00,VWS V14.01,2013-07-02 06:20:00,
2013-07-02 02:25:00,78.7,70.9,30.01,SW,229,0.0,0.0,77,0.00,,---,0.00,VWS V14.01,2013-07-02 06:25:00,
2013-07-02 02:30:00,78.7,70.9,30.01,SSW,210,0.0,0.0,77,0.00,,---,0.00,VWS V14.01,2013-07-02 06:30:00,
2013-07-02 02:31:00,78.7,70.9,30.01,SW,222,0.0,0.0,77,0.00,,---,0.00,VWS V14.01,2013-07-02 06:31:00,
2013-07-02 02:36:00,78.7,70.9,30.01,WSW,243,0.0,0.0,77,0.00,,---,0.00,VWS V14.01,2013-07-02 06:36:00,
2013-07-02 02:41:00,78.7,70.5,30.00,SSW,213,0.0,0.0,76,0.00,,---,0.00,VWS V14.01,2013-07-02 06:41:00,
2013-07-02 02:46:00,78.8,71.0,30.00,SW,220,0.0,0.0,77,0.00,,---,0.00,VWS V14.01,2013-07-02 06:46:00,
2013-07-02 02:51:00,78.9,71.1,30.01,SW,221,0.0,0.0,77,0.00,,---,0.00,VWS V14.01,2013-07-02 06:51:00,
2013-07-02 02:56:00,78.8,71.0,30.01,SW,225,0.0,0.0,77,0.00,,---,0.00,VWS V14.01,2013-07-02 06:56:00,
2013-07-02 03:00:00,78.8,71.0,30.01,SSW,209,0.0,0.0,77,0.01,,---,0.01,VWS V14.01,2013-07-02 07:00:00,
2013-07-02 03:01:00,78.8,71.0,30.01,SW,220,0.0,0.0,77,0.01,,---,0.01,VWS V14.01,2013-07-02 07:01:00,
2013-07-02 03:06:00,78.9,71.1,30.00,SW,229,0.0,0.0,77,0.01,,---,0.01,VWS V14.01,2013-07-02 07:06:00,
2013-07-02 03:11:00,78.8,71.0,30.01,SW,216,0.0,0.0,77,0.01,,---,0.01,VWS V14.01,2013-07-02 07:11:00,
2013-07-02 03:16:00,78.9,71.1,30.01,SSW,213,0.0,0.0,77,0.01,,---,0.01,VWS V14.01,2013-07-02 07:16:00,
2013-07-02 03:21:00,78.8,71.0,30.01,SSW,213,0.0,0.0,77,0.01,,---,0.01,VWS V14.01,2013-07-02 07:21:00,
2013-07-02 03:26:00,78.8,70.6,30.01,SW,225,0.0,0.0,76,0.01,,---,0.01,VWS V14.01,2013-07-02 07:26:00,
2013-07-02 03:30:00,78.8,70.6,30.01,SSW,192,0.0,0.0,76,0.01,,---,0.01,VWS V14.01,2013-07-02 07:30:00,
2013-07-02 03:35:00,78.8,70.6,30.01,SW,221,0.0,0.0,76,0.01,,---,0.01,VWS V14.01,2013-07-02 07:35:00,
2013-07-02 03:36:00,78.8,70.6,30.01,SW,221,0.0,0.0,76,0.01,,---,0.01,VWS V14.01,2013-07-02 07:36:00,
2013-07-02 03:40:00,78.8,70.6,30.01,SSW,210,0.0,0.0,76,0.01,,---,0.01,VWS V14.01,2013-07-02 07:40:00,
2013-07-02 03:45:00,78.7,70.9,30.01,SSW,213,0.0,0.0,77,0.01,,---,0.01,VWS V14.01,2013-07-02 07:45:00,
2013-07-02 03:50:00,78.7,70.9,30.01,SW,221,0.0,0.0,77,0.01,,---,0.01,VWS V14.01,2013-07-02 07:50:00,
2013-07-02 03:55:00,78.6,70.8,30.01,SW,215,0.0,0.0,77,0.01,,---,0.01,VWS V14.01,2013-07-02 07:55:00,
2013-07-02 04:00:00,78.6,70.8,30.01,SSW,209,0.0,0.0,77,0.00,,---,0.01,VWS V14.01,2013-07-02 08:00:00,
2013-07-02 04:05:00,78.6,70.8,30.02,SW,217,0.0,0.0,77,0.00,,---,0.01,VWS V14.01,2013-07-02 08:05:00,
2013-07-02 04:10:00,78.6,70.8,30.02,SSW,210,0.0,0.0,77,0.00,,---,0.01,VWS V14.01,2013-07-02 08:10:00,
2013-07-02 04:15:00,78.6,70.8,30.02,SW,215,0.0,0.0,77,0.00,,---,0.01,VWS V14.01,2013-07-02 08:15:00,
2013-07-02 04:20:00,78.6,70.8,30.02,SW,217,0.0,0.0,77,0.00,,---,0.01,VWS V14.01,2013-07-02 08:20:00,
2013-07-02 04:25:00,78.6,70.4,30.02,SW,228,0.0,0.0,76,0.00,,---,0.01,VWS V14.01,2013-07-02 08:25:00,
2013-07-02 04:30:00,78.6,70.0,30.02,SW,221,0.0,0.0,75,0.00,,---,0.01,VWS V14.01,2013-07-02 08:30:00,
2013-07-02 04:35:00,78.7,70.1,30.02,SW,223,0.0,0.0,75,0.00,,---,0.01,VWS V14.01,2013-07-02 08:35:00,
2013-07-02 04:40:00,78.6,70.0,30.02,SW,220,0.0,0.0,75,0.00,,---,0.01,VWS V14.01,2013-07-02 08:40:00,
2013-07-02 04:45:00,78.5,69.9,30.02,SW,225,0.0,0.0,75,0.00,,---,0.01,VWS V14.01,2013-07-02 08:45:00,
2013-07-02 04:50:00,78.5,70.3,30.02,SW,229,0.0,0.0,76,0.00,,---,0.01,VWS V14.01,2013-07-02 08:50:00,
2013-07-02 04:55:00,78.5,70.3,30.03,SW,230,0.0,0.0,76,0.00,,---,0.01,VWS V14.01,2013-07-02 08:55:00,
2013-07-02 05:00:00,78.5,70.3,30.02,SW,217,0.0,0.0,76,0.00,,---,0.01,VWS V14.01,2013-07-02 09:00:00,
2013-07-02 05:05:00,78.7,70.5,30.03,SSW,213,0.0,0.0,76,0.00,,---,0.01,VWS V14.01,2013-07-02 09:05:00,
2013-07-02 05:10:00,78.6,70.4,30.03,SW,229,0.0,0.0,76,0.00,,---,0.01,VWS V14.01,2013-07-02 09:10:00,
2013-07-02 05:15:00,78.6,70.8,30.03,SW,215,0.0,0.0,77,0.00,,---,0.01,VWS V14.01,2013-07-02 09:15:00,
2013-07-02 05:20:00,78.6,70.8,30.03,SW,221,0.0,0.0,77,0.00,,---,0.01,VWS V14.01,2013-07-02 09:20:00,
2013-07-02 05:25:00,78.6,70.8,30.03,SW,223,0.0,0.0,77,0.00,,---,0.01,VWS V14.01,2013-07-02 09:25:00,
2013-07-02 05:30:00,78.6,70.8,30.03,SW,225,0.0,0.0,77,0.00,,---,0.01,VWS V14.01,2013-07-02 09:30:00,
2013-07-02 05:35:00,78.5,70.3,30.03,SW,225,0.0,0.0,76,0.00,,---,0.01,VWS V14.01,2013-07-02 09:35:00,
2013-07-02 05:40:00,78.6,70.4,30.04,SW,234,0.0,0.0,76,0.00,,---,0.01,VWS V14.01,2013-07-02 09:40:00,
2013-07-02 05:45:00,78.7,70.5,30.04,SW,219,0.0,0.0,76,0.00,,---,0.01,VWS V14.01,2013-07-02 09:45:00,
2013-07-02 05:50:00,78.7,70.5,30.04,SW,215,0.0,0.0,76,0.00,,---,0.01,VWS V14.01,2013-07-02 09:50:00,
2013-07-02 05:55:00,78.7,70.5,30.04,SW,221,0.0,0.0,76,0.00,,---,0.01,VWS V14.01,2013-07-02 09:55:00,
2013-07-02 06:00:00,78.6,70.4,30.04,SW,223,0.0,0.0,76,0.00,,---,0.01,VWS V14.01,2013-07-02 10:00:00,
2013-07-02 06:05:00,78.6,70.8,30.05,SW,227,0.0,0.0,77,0.00,,---,0.01,VWS V14.01,2013-07-02 10:05:00,
2013-07-02 06:10:00,78.6,70.8,30.05,SW,220,0.0,0.0,77,0.00,,---,0.01,VWS V14.01,2013-07-02 10:10:00,
2013-07-02 06:15:00,78.6,70.8,30.05,SW,217,0.0,0.0,77,0.00,,---,0.01,VWS V14.01,2013-07-02 10:15:00,
2013-07-02 06:20:00,78.7,70.9,30.05,SW,221,0.0,0.0,77,0.00,,---,0.01,VWS V14.01,2013-07-02 10:20:00,
2013-07-02 06:25:00,78.7,70.9,30.06,SW,219,0.0,0.0,77,0.00,,---,0.01,VWS V14.01,2013-07-02 10:25:00,
2013-07-02 06:30:00,78.8,71.0,30.06,SSW,212,0.0,0.0,77,0.00,,---,0.01,VWS V14.01,2013-07-02 10:30:00,
2013-07-02 06:35:00,78.9,71.1,30.06,SW,231,0.0,0.0,77,0.00,,---,0.01,VWS V14.01,2013-07-02 10:35:00,
2013-07-02 06:40:00,78.9,71.1,30.06,SW,218,0.0,0.0,77,0.00,,---,0.01,VWS V14.01,2013-07-02 10:40:00,
2013-07-02 06:45:00,79.0,71.2,30.06,SW,225,0.0,0.0,77,0.00,,---,0.01,VWS V14.01,2013-07-02 10:45:00,
2013-07-02 06:50:00,79.1,71.3,30.06,SW,229,0.0,0.0,77,0.00,,---,0.01,VWS V14.01,2013-07-02 10:50:00,
2013-07-02 06:55:00,79.1,71.3,30.06,SW,225,0.0,0.0,77,0.00,,---,0.01,VWS V14.01,2013-07-02 10:55:00,
2013-07-02 07:00:00,79.1,71.3,30.06,SSW,206,0.0,0.0,77,0.00,,---,0.01,VWS V14.01,2013-07-02 11:00:00,
2013-07-02 07:05:00,79.2,71.4,30.06,SW,219,0.0,0.0,77,0.00,,---,0.01,VWS V14.01,2013-07-02 11:05:00,
2013-07-02 07:10:00,79.2,71.4,30.06,SW,227,0.0,0.0,77,0.00,,---,0.01,VWS V14.01,2013-07-02 11:10:00,
2013-07-02 07:15:00,79.3,71.5,30.06,SW,217,0.0,0.0,77,0.00,,---,0.01,VWS V14.01,2013-07-02 11:15:00,
2013-07-02 07:20:00,79.3,71.5,30.06,SSW,207,0.0,0.0,77,0.00,,---,0.01,VWS V14.01,2013-07-02 11:20:00,
2013-07-02 07:25:00,79.4,71.6,30.07,SSW,212,0.0,0.0,77,0.00,,---,0.01,VWS V14.01,2013-07-02 11:25:00,
2013-07-02 07:30:00,79.4,71.6,30.07,SW,217,0.0,0.0,77,0.00,,---,0.01,VWS V14.01,2013-07-02 11:30:00,
2013-07-02 07:35:00,79.3,71.5,30.07,SW,215,0.0,0.0,77,0.00,,---,0.01,VWS V14.01,2013-07-02 11:35:00,
2013-07-02 07:40:00,79.4,71.6,30.07,SSW,212,0.0,0.0,77,0.00,,---,0.01,VWS V14.01,2013-07-02 11:40:00,
2013-07-02 07:45:00,79.4,71.6,30.07,SW,217,0.0,0.0,77,0.00,,---,0.01,VWS V14.01,2013-07-02 11:45:00,
2013-07-02 07:50:00,79.4,71.6,30.07,SW,217,0.0,0.0,77,0.00,,---,0.01,VWS V14.01,2013-07-02 11:50:00,
2013-07-02 07:55:00,79.5,71.7,30.07,SSW,192,0.0,0.0,77,0.00,,---,0.01,VWS V14.01,2013-07-02 11:55:00,
2013-07-02 08:00:00,79.6,71.8,30.07,SW,219,0.0,0.0,77,0.00,,---,0.01,VWS V14.01,2013-07-02 12:00:00,
2013-07-02 08:05:00,79.6,71.8,30.08,SSW,207,0.0,0.0,77,0.00,,---,0.01,VWS V14.01,2013-07-02 12:05:00,
2013-07-02 08:10:00,79.6,71.8,30.07,SW,227,0.0,0.0,77,0.00,,---,0.01,VWS V14.01,2013-07-02 12:10:00,
2013-07-02 08:15:00,79.7,71.9,30.08,SSW,202,0.0,0.0,77,0.00,,---,0.01,VWS V14.01,2013-07-02 12:15:00,
2013-07-02 08:20:00,79.8,71.9,30.08,SSW,202,0.0,0.0,77,0.00,,---,0.01,VWS V14.01,2013-07-02 12:20:00,
2013-07-02 08:26:00,79.8,71.9,30.08,SSW,194,0.0,0.0,77,0.00,,---,0.01,VWS V14.01,2013-07-02 12:26:00,
2013-07-02 08:30:00,79.8,71.9,30.08,SSW,213,0.0,0.0,77,0.00,,---,0.01,VWS V14.01,2013-07-02 12:30:00,
2013-07-02 08:31:00,79.8,71.9,30.08,SW,221,0.0,0.0,77,0.00,,---,0.01,VWS V14.01,2013-07-02 12:31:00,
2013-07-02 08:36:00,79.8,71.9,30.08,SSW,207,0.0,0.0,77,0.00,,---,0.01,VWS V14.01,2013-07-02 12:36:00,
2013-07-02 08:41:00,79.9,72.1,30.08,SSW,201,0.0,0.0,77,0.00,,---,0.01,VWS V14.01,2013-07-02 12:41:00,
2013-07-02 08:46:00,79.6,71.8,30.08,SSW,203,0.0,0.0,77,0.00,,---,0.01,VWS V14.01,2013-07-02 12:46:00,
2013-07-02 08:51:00,79.3,71.5,30.09,SW,219,0.0,0.0,77,0.03,,---,0.04,VWS V14.01,2013-07-02 12:51:00,
2013-07-02 08:57:00,78.7,71.6,30.09,WSW,240,0.0,0.0,79,0.10,,---,0.11,VWS V14.01,2013-07-02 12:57:00,
2013-07-02 09:00:00,78.2,71.2,30.08,SSW,208,0.0,0.0,79,0.10,,---,0.11,VWS V14.01,2013-07-02 13:00:00,
2013-07-02 09:03:00,78.3,71.6,30.09,SW,228,0.0,0.0,80,0.11,,---,0.12,VWS V14.01,2013-07-02 13:03:00,
2013-07-02 09:08:00,78.4,71.7,30.09,SSW,202,0.0,0.0,80,0.12,,---,0.13,VWS V14.01,2013-07-02 13:08:00,
2013-07-02 09:13:00,78.6,72.3,30.09,SSW,212,0.0,0.0,81,0.12,,---,0.13,VWS V14.01,2013-07-02 13:13:00,
2013-07-02 09:18:00,78.9,72.6,30.08,SSW,211,0.0,0.0,81,0.12,,---,0.13,VWS V14.01,2013-07-02 13:18:00,
2013-07-02 09:23:00,79.1,72.8,30.09,SSW,206,0.0,0.0,81,0.12,,---,0.13,VWS V14.01,2013-07-02 13:23:00,
2013-07-02 09:28:00,79.1,72.8,30.08,SSW,203,0.0,0.0,81,0.12,,---,0.13,VWS V14.01,2013-07-02 13:28:00,
2013-07-02 09:30:00,79.0,72.7,30.08,South,191,0.0,0.0,81,0.12,,---,0.13,VWS V14.01,2013-07-02 13:30:00,
2013-07-02 09:34:00,79.0,72.3,30.08,SSW,200,0.0,0.0,80,0.12,,---,0.13,VWS V14.01,2013-07-02 13:34:00,
2013-07-02 09:40:00,79.3,72.6,30.08,SW,214,0.0,0.0,80,0.12,,---,0.13,VWS V14.01,2013-07-02 13:40:00,
2013-07-02 09:45:00,79.2,72.5,30.08,SSW,196,0.0,0.0,80,0.12,,---,0.13,VWS V14.01,2013-07-02 13:45:00,
2013-07-02 09:50:00,78.9,71.8,30.08,SSW,201,0.0,0.0,79,0.12,,---,0.13,VWS V14.01,2013-07-02 13:50:00,
2013-07-02 10:00:00,78.3,70.5,30.08,SSW,205,0.0,0.0,77,0.12,,---,0.13,VWS V14.01,2013-07-02 14:00:00,
2013-07-02 10:30:00,80.0,71.4,30.09,SSW,203,0.0,0.0,75,0.02,,---,0.13,VWS V14.01,2013-07-02 14:30:00,
2013-07-02 11:00:00,79.3,71.8,30.11,SW,235,0.0,0.0,78,0.01,,---,0.14,VWS V14.01,2013-07-02 15:00:00,
2013-07-02 11:30:00,75.1,68.9,30.12,SSW,198,0.0,0.0,81,0.40,,---,0.53,VWS V14.01,2013-07-02 15:30:00,
2013-07-02 12:00:00,75.1,68.9,30.12,SSW,198,0.0,0.0,81,0.40,,---,0.53,VWS V14.01,2013-07-02 16:00:00,
2013-07-02 12:30:00,75.1,68.9,30.12,SSW,198,0.0,0.0,81,0.39,,---,0.53,VWS V14.01,2013-07-02 16:30:00,
2013-07-02 13:00:00,75.1,68.9,30.11,SSW,198,0.0,0.0,81,0.00,,---,0.53,VWS V14.01,2013-07-02 17:00:00,
2013-07-02 13:30:00,75.1,68.9,30.11,SSW,198,0.0,0.0,81,0.00,,---,0.53,VWS V14.01,2013-07-02 17:30:00,
2013-07-02 14:00:00,75.1,68.9,30.11,SSW,198,0.0,0.0,81,0.00,,---,0.53,VWS V14.01,2013-07-02 18:00:00,
2013-07-02 14:30:00,75.1,68.9,30.12,SSW,198,0.0,0.0,81,0.00,,---,0.53,VWS V14.01,2013-07-02 18:30:00,
2013-07-02 15:00:00,75.1,68.9,30.11,SSW,198,0.0,0.0,81,0.00,,---,0.53,VWS V14.01,2013-07-02 19:00:00,
2013-07-02 15:30:00,75.1,68.9,30.10,SSW,198,0.0,0.0,81,0.00,,---,0.53,VWS V14.01,2013-07-02 19:30:00,
2013-07-02 16:00:00,75.1,68.9,30.10,SSW,198,0.0,0.0,81,0.00,,---,0.53,VWS V14.01,2013-07-02 20:00:00,
2013-07-02 16:30:00,75.1,68.9,30.10,SSW,198,0.0,0.0,81,0.00,,---,0.53,VWS V14.01,2013-07-02 20:30:00,
2013-07-02 17:00:00,77.9,71.6,30.09,South,179,0.0,0.0,81,0.00,,---,0.53,VWS V14.01,2013-07-02 21:00:00,
2013-07-02 17:30:00,78.1,69.9,30.09,South,180,0.0,0.0,76,0.00,,---,0.53,VWS V14.01,2013-07-02 21:30:00,
2013-07-02 18:00:00,78.3,70.1,30.09,SSE,166,0.0,0.0,76,0.00,,---,0.53,VWS V14.01,2013-07-02 22:00:00,
2013-07-02 18:30:00,78.7,70.5,30.10,South,190,0.0,0.0,76,0.00,,---,0.53,VWS V14.01,2013-07-02 22:30:00,
2013-07-02 19:00:00,78.7,70.9,30.11,SW,217,0.0,0.0,77,0.00,,---,0.53,VWS V14.01,2013-07-02 23:00:00,
2013-07-02 19:30:00,79.0,71.6,30.11,SSW,201,0.0,0.0,78,0.00,,---,0.53,VWS V14.01,2013-07-02 23:30:00,
2013-07-02 20:00:00,78.9,71.5,30.11,SSW,194,0.0,0.0,78,0.00,,---,0.53,VWS V14.01,2013-07-03 00:00:00,
2013-07-02 20:06:00,78.8,71.4,30.12,SSW,194,0.0,0.0,78,0.00,,---,0.53,VWS V14.01,2013-07-03 00:06:00,
2013-07-02 20:11:00,78.8,71.4,30.12,SSW,194,0.0,0.0,78,0.00,,---,0.53,VWS V14.01,2013-07-03 00:11:00,
2013-07-02 20:16:00,78.8,71.4,30.12,SSW,194,0.0,0.0,78,0.00,,---,0.53,VWS V14.01,2013-07-03 00:16:00,
2013-07-02 20:21:00,78.8,71.4,30.12,SSW,194,0.0,0.0,78,0.00,,---,0.53,VWS V14.01,2013-07-03 00:21:00,
2013-07-02 20:23:00,78.8,71.4,30.12,SSW,194,0.0,0.0,78,0.00,,---,0.53,VWS V14.01,2013-07-03 00:23:00,
2013-07-02 20:24:00,78.8,71.4,30.12,SSW,194,0.0,0.0,78,0.00,,---,0.53,VWS V14.01,2013-07-03 00:24:00,
2013-07-02 20:28:00,78.8,71.4,30.12,SSW,194,0.0,0.0,78,0.00,,---,0.53,VWS V14.01,2013-07-03 00:28:00,
2013-07-02 20:30:00,78.8,71.4,30.12,SSW,194,0.0,0.0,78,0.00,,---,0.53,VWS V14.01,2013-07-03 00:30:00,
2013-07-02 20:33:00,78.8,71.4,30.12,SSW,194,0.0,0.0,78,0.00,,---,0.53,VWS V14.01,2013-07-03 00:33:00,
2013-07-02 20:39:00,78.8,71.4,30.12,SSW,194,0.0,0.0,78,0.00,,---,0.53,VWS V14.01,2013-07-03 00:39:00,
2013-07-02 20:44:00,78.8,71.4,30.12,SSW,194,0.0,0.0,78,0.00,,---,0.53,VWS V14.01,2013-07-03 00:44:00,
2013-07-02 20:49:00,78.8,71.4,30.12,SSW,194,0.0,0.0,78,0.00,,---,0.53,VWS V14.01,2013-07-03 00:49:00,
2013-07-02 20:54:00,78.8,71.4,30.13,SSW,194,0.0,0.0,78,0.00,,---,0.53,VWS V14.01,2013-07-03 00:54:00,
2013-07-02 20:59:00,78.8,71.4,30.12,SSW,194,0.0,0.0,78,0.00,,---,0.53,VWS V14.01,2013-07-03 00:59:00,
2013-07-02 21:00:00,78.8,71.4,30.12,SSW,194,0.0,0.0,78,0.00,,---,0.53,VWS V14.01,2013-07-03 01:00:00,
2013-07-02 21:01:00,78.8,71.4,30.13,SSW,194,0.0,0.0,78,0.00,,---,0.53,VWS V14.01,2013-07-03 01:01:00,
2013-07-02 21:03:00,78.8,71.4,30.12,SSW,194,0.0,0.0,78,0.00,,---,0.53,VWS V14.01,2013-07-03 01:03:00,
2013-07-02 21:09:00,78.8,71.4,30.12,SSW,194,0.0,0.0,78,0.00,,---,0.53,VWS V14.01,2013-07-03 01:09:00,
2013-07-02 21:14:00,78.8,71.4,30.13,SSW,194,0.0,0.0,78,0.00,,---,0.53,VWS V14.01,2013-07-03 01:14:00,
2013-07-02 21:19:00,78.8,71.4,30.12,SSW,194,0.0,0.0,78,0.00,,---,0.53,VWS V14.01,2013-07-03 01:19:00,
2013-07-02 21:24:00,78.8,71.4,30.13,SSW,194,0.0,0.0,78,0.00,,---,0.53,VWS V14.01,2013-07-03 01:24:00,
2013-07-02 21:27:00,78.8,71.4,30.13,SSW,194,0.0,0.0,78,0.00,,---,0.53,VWS V14.01,2013-07-03 01:27:00,
2013-07-02 21:30:00,78.8,71.4,30.13,SSW,194,0.0,0.0,78,0.00,,---,0.53,VWS V14.01,2013-07-03 01:30:00,
2013-07-02 21:32:00,78.8,71.4,30.13,SSW,194,0.0,0.0,78,0.00,,---,0.53,VWS V14.01,2013-07-03 01:32:00,
2013-07-02 21:37:00,78.8,71.4,30.13,SSW,194,0.0,0.0,78,0.00,,---,0.53,VWS V14.01,2013-07-03 01:37:00,
2013-07-02 21:42:00,78.8,71.4,30.13,SSW,194,0.0,0.0,78,0.00,,---,0.53,VWS V14.01,2013-07-03 01:42:00,
2013-07-02 21:48:00,78.8,71.4,30.14,SSW,194,0.0,0.0,78,0.00,,---,0.53,VWS V14.01,2013-07-03 01:48:00,
2013-07-02 21:49:00,78.8,71.4,30.14,SSW,194,0.0,0.0,78,0.00,,---,0.53,VWS V14.01,2013-07-03 01:49:00,
2013-07-02 21:51:00,78.8,71.4,30.14,SSW,194,0.0,0.0,78,0.00,,---,0.53,VWS V14.01,2013-07-03 01:51:00,
2013-07-02 21:56:00,78.8,71.4,30.14,SSW,194,0.0,0.0,78,0.00,,---,0.53,VWS V14.01,2013-07-03 01:56:00,
2013-07-02 22:00:00,78.8,71.4,30.14,SSW,194,0.0,0.0,78,0.00,,---,0.53,VWS V14.01,2013-07-03 02:00:00,
2013-07-02 22:01:00,78.8,71.4,30.14,SSW,194,0.0,0.0,78,0.00,,---,0.53,VWS V14.01,2013-07-03 02:01:00,
2013-07-02 22:06:00,78.8,71.4,30.14,SSW,194,0.0,0.0,78,0.00,,---,0.53,VWS V14.01,2013-07-03 02:06:00,
2013-07-02 22:11:00,78.8,71.4,30.14,SSW,194,0.0,0.0,78,0.00,,---,0.53,VWS V14.01,2013-07-03 02:11:00,
2013-07-02 22:16:00,78.8,71.4,30.15,SSW,194,0.0,0.0,78,0.00,,---,0.53,VWS V14.01,2013-07-03 02:16:00,
2013-07-02 22:21:00,78.8,71.4,30.15,SSW,194,0.0,0.0,78,0.00,,---,0.53,VWS V14.01,2013-07-03 02:21:00,
2013-07-02 22:26:00,78.8,71.4,30.15,SSW,194,0.0,0.0,78,0.00,,---,0.53,VWS V14.01,2013-07-03 02:26:00,
2013-07-02 22:30:00,78.8,71.4,30.15,SSW,194,0.0,0.0,78,0.00,,---,0.53,VWS V14.01,2013-07-03 02:30:00,
2013-07-02 22:32:00,78.8,71.4,30.15,SSW,194,0.0,0.0,78,0.00,,---,0.53,VWS V14.01,2013-07-03 02:32:00,
2013-07-02 22:37:00,78.8,71.4,30.15,SSW,194,0.0,0.0,78,0.00,,---,0.53,VWS V14.01,2013-07-03 02:37:00,
2013-07-02 22:42:00,78.8,71.4,30.15,SSW,194,0.0,0.0,78,0.00,,---,0.53,VWS V14.01,2013-07-03 02:42:00,
2013-07-02 22:46:00,78.8,71.4,30.15,SSW,194,0.0,0.0,78,0.00,,---,0.53,VWS V14.01,2013-07-03 02:46:00,
2013-07-02 22:51:00,78.8,71.4,30.15,SSW,194,0.0,0.0,78,0.00,,---,0.53,VWS V14.01,2013-07-03 02:51:00,
2013-07-02 22:56:00,78.8,71.4,30.15,SSW,194,0.0,0.0,78,0.00,,---,0.53,VWS V14.01,2013-07-03 02:56:00,
2013-07-02 23:00:00,78.8,71.4,30.14,SSW,194,0.0,0.0,78,0.00,,---,0.53,VWS V14.01,2013-07-03 03:00:00,
2013-07-02 23:02:00,0.0,0.0,30.15,North,0,0.0,0.0,0,0.00,,---,0.53,VWS V14.01,2013-07-03 03:02:00,
2013-07-02 23:07:00,0.0,0.0,30.15,North,0,0.0,0.0,0,0.00,,---,0.53,VWS V14.01,2013-07-03 03:07:00,
2013-07-02 23:12:00,0.0,0.0,30.15,North,0,0.0,0.0,0,0.00,,---,0.53,VWS V14.01,2013-07-03 03:12:00,
2013-07-02 23:17:00,0.0,0.0,30.15,North,0,0.0,0.0,0,0.00,,---,0.53,VWS V14.01,2013-07-03 03:17:00,
2013-07-02 23:21:00,0.0,0.0,30.15,North,0,0.0,0.0,0,0.00,,---,0.53,VWS V14.01,2013-07-03 03:21:00,
2013-07-02 23:26:00,0.0,0.0,30.15,North,0,0.0,0.0,0,0.00,,---,0.53,VWS V14.01,2013-07-03 03:26:00,
2013-07-02 23:30:00,0.0,0.0,30.15,North,0,0.0,0.0,0,0.00,,---,0.53,VWS V14.01,2013-07-03 03:30:00,
2013-07-02 23:31:00,0.0,0.0,30.15,North,0,0.0,0.0,0,0.00,,---,0.53,VWS V14.01,2013-07-03 03:31:00,
2013-07-02 23:35:00,0.0,0.0,30.14,North,0,0.0,0.0,0,0.00,,---,0.53,VWS V14.01,2013-07-03 03:35:00,
2013-07-02 23:39:00,0.0,0.0,30.14,North,0,0.0,0.0,0,0.00,,---,0.53,VWS V14.01,2013-07-03 03:39:00,
2013-07-02 23:45:00,0.0,0.0,30.15,North,0,0.0,0.0,0,0.00,,---,0.53,VWS V14.01,2013-07-03 03:45:00,
2013-07-02 23:49:00,0.0,0.0,30.15,North,0,0.0,0.0,0,0.00,,---,0.53,VWS V14.01,2013-07-03 03:49:00,
2013-07-02 23:54:00,0.0,0.0,30.14,North,0,0.0,0.0,0,0.00,,---,0.53,VWS V14.01,2013-07-03 03:54:00,
2013-07-02 23:59:00,0.0,0.0,30.14,North,0,0.0,0.0,0,0.00,,---,0.53,VWS V14.01,2013-07-03 03:59:00,